CheckWX is a tool to help pilots better visualize weather data.  It is not intended as a substitute for an official pre-flight weather briefing.

06:31:31 UTC

EGNR METAR
Hawarden Airport
Hawarden, United Kingdom
Current

12 mins ago

EGNR 230620Z VRB02KT 9000 NSC 09/07 Q1000
Observed
Apr-23 @ 06:20 UTC
Wind
  • Variable at 2 KTS
Visibility
8,996 meters
Flight Rules
VFR
Cloud Levels
  • Clear skies
Temperature
C / 48°F
Dewpoint
C / 45°F
Humidity
87%
Altimeter
29.53" Hg
Pressure
999.92 hPa
Previous

42 mins ago

EGNR 230550Z 06001KT 9000 NSC 08/06 Q1000
Observed
Apr-23 @ 05:50 UTC
Wind
  • 060° at 1 KTS
Visibility
8,996 meters
Flight Rules
VFR
Cloud Levels
  • Clear skies
Temperature
C / 46°F
Dewpoint
C / 43°F
Humidity
87%
Altimeter
29.53" Hg
Pressure
999.92 hPa
Previous

1 hour ago

EGNR 230520Z VRB02KT 9000 NSC 08/06 Q1000
Observed
Apr-23 @ 05:20 UTC
Wind
  • Variable at 2 KTS
Visibility
8,996 meters
Flight Rules
VFR
Cloud Levels
  • Clear skies
Temperature
C / 46°F
Dewpoint
C / 43°F
Humidity
87%
Altimeter
29.53" Hg
Pressure
999.92 hPa